createdAt,value
2023-12-17T00:00:02.094Z,4.9
2023-12-17T00:01:03.422Z,4.8
2023-12-17T00:02:04.570Z,4.8
2023-12-17T00:03:15.672Z,4.8
2023-12-17T00:04:22.162Z,4.8
2023-12-17T00:05:23.582Z,4.8
2023-12-17T00:06:24.818Z,4.8
2023-12-17T00:07:26.282Z,4.8
2023-12-17T00:08:27.511Z,4.8
2023-12-17T00:09:28.683Z,4.8
2023-12-17T00:10:29.853Z,4.8
2023-12-17T00:11:31.012Z,4.8
2023-12-17T00:12:32.185Z,4.8
2023-12-17T00:13:33.341Z,4.8
2023-12-17T00:14:34.511Z,4.8
2023-12-17T00:15:35.669Z,4.8
2023-12-17T00:16:36.836Z,4.8
2023-12-17T00:17:38.179Z,4.8
2023-12-17T00:18:40.308Z,4.8
2023-12-17T00:19:41.937Z,4.8
2023-12-17T00:20:43.392Z,4.8
2023-12-17T00:21:44.674Z,4.8
2023-12-17T00:22:45.837Z,4.8
2023-12-17T00:23:47.092Z,4.7
2023-12-17T00:24:48.412Z,4.7
2023-12-17T00:25:49.624Z,4.8
2023-12-17T00:26:51.503Z,4.8
2023-12-17T00:27:52.696Z,4.7
2023-12-17T00:28:53.863Z,4.7
2023-12-17T00:29:55.055Z,4.7
2023-12-17T00:30:56.229Z,4.7
2023-12-17T00:32:00.277Z,4.7
2023-12-17T00:33:02.772Z,4.7
2023-12-17T00:34:04.686Z,4.7
2023-12-17T00:35:06.267Z,4.7
2023-12-17T00:36:07.517Z,4.7
2023-12-17T00:37:08.812Z,4.7
2023-12-17T00:38:09.983Z,4.7
2023-12-17T00:39:11.170Z,4.7
2023-12-17T00:40:12.411Z,4.7
2023-12-17T00:41:13.584Z,4.7
2023-12-17T00:42:14.766Z,4.7
2023-12-17T00:43:16.000Z,4.7
2023-12-17T00:44:17.191Z,4.7
2023-12-17T00:45:18.451Z,4.7
2023-12-17T00:46:19.780Z,4.7
2023-12-17T00:47:20.948Z,4.7
2023-12-17T00:48:22.260Z,4.6
2023-12-17T00:49:24.163Z,4.6
2023-12-17T00:50:25.514Z,4.6
2023-12-17T00:51:26.730Z,4.6
2023-12-17T00:52:27.899Z,4.6
2023-12-17T00:53:29.068Z,4.6
2023-12-17T00:54:30.243Z,4.6
2023-12-17T00:55:31.410Z,4.6
2023-12-17T00:56:32.562Z,4.6
2023-12-17T00:57:33.742Z,4.6
2023-12-17T00:58:34.901Z,4.6
2023-12-17T00:59:36.076Z,4.6
2023-12-17T01:00:42.874Z,4.6
2023-12-17T01:01:57.134Z,4.6
2023-12-17T01:02:58.339Z,4.6
2023-12-17T01:03:59.852Z,4.6
2023-12-17T01:05:01.229Z,4.6
2023-12-17T01:06:02.520Z,4.6
2023-12-17T01:07:03.930Z,4.6
2023-12-17T01:08:05.096Z,4.6
2023-12-17T01:09:06.315Z,4.6
2023-12-17T01:10:07.564Z,4.6
2023-12-17T01:11:08.730Z,4.6
2023-12-17T01:12:09.913Z,4.6
2023-12-17T01:13:11.185Z,4.6
2023-12-17T01:14:12.374Z,4.6
2023-12-17T01:15:14.086Z,4.6
2023-12-17T01:16:15.502Z,4.6
2023-12-17T01:17:16.661Z,4.6
2023-12-17T01:18:17.905Z,4.6
2023-12-17T01:19:19.661Z,4.6
2023-12-17T01:20:21.185Z,4.6
2023-12-17T01:21:22.369Z,4.6
2023-12-17T01:22:23.560Z,4.6
2023-12-17T01:23:24.738Z,4.6
2023-12-17T01:24:26.005Z,4.6
2023-12-17T01:25:27.160Z,4.6
2023-12-17T01:26:28.354Z,4.6
2023-12-17T01:27:29.550Z,4.6
2023-12-17T01:28:30.716Z,4.6
2023-12-17T01:29:31.906Z,4.6
2023-12-17T01:30:33.083Z,4.6
2023-12-17T01:31:34.368Z,4.6
2023-12-17T01:32:35.579Z,4.6
2023-12-17T01:33:36.853Z,4.6
2023-12-17T01:34:38.515Z,4.6
2023-12-17T01:35:40.056Z,4.6
2023-12-17T01:36:41.275Z,4.6
2023-12-17T01:37:42.641Z,4.6
2023-12-17T01:38:44.170Z,4.6
2023-12-17T01:39:45.376Z,4.6
2023-12-17T01:40:46.524Z,4.6
2023-12-17T01:41:47.714Z,4.6
2023-12-17T01:42:48.951Z,4.6
2023-12-17T01:43:50.168Z,4.6
2023-12-17T01:44:51.347Z,4.6
2023-12-17T01:45:52.538Z,4.6
2023-12-17T01:46:53.700Z,4.6
2023-12-17T01:47:54.963Z,4.6
2023-12-17T01:48:56.603Z,4.5
2023-12-17T01:49:58.050Z,4.5
2023-12-17T01:50:59.289Z,4.5
2023-12-17T01:52:00.488Z,4.5
2023-12-17T01:53:01.653Z,4.5
2023-12-17T01:54:02.823Z,4.5
2023-12-17T01:55:04.098Z,4.5
2023-12-17T01:56:05.291Z,4.5
2023-12-17T01:57:06.467Z,4.5
2023-12-17T01:58:07.690Z,4.5
2023-12-17T01:59:08.863Z,4.5
2023-12-17T02:00:10.075Z,4.5
2023-12-17T02:01:11.401Z,4.5
2023-12-17T02:02:12.656Z,4.5
2023-12-17T02:03:13.880Z,4.5
2023-12-17T02:04:15.496Z,4.4
2023-12-17T02:05:16.798Z,4.4
2023-12-17T02:06:18.045Z,4.4
2023-12-17T02:07:19.398Z,4.4
2023-12-17T02:08:20.553Z,4.4
2023-12-17T02:09:21.785Z,4.4
2023-12-17T02:10:23.067Z,4.4
2023-12-17T02:11:24.236Z,4.4
2023-12-17T02:12:25.443Z,4.4
2023-12-17T02:13:26.699Z,4.4
2023-12-17T02:14:27.853Z,4.4
2023-12-17T02:15:29.034Z,4.4
2023-12-17T02:16:30.321Z,4.4
2023-12-17T02:17:31.527Z,4.4
2023-12-17T02:18:33.467Z,4.4
2023-12-17T02:19:35.016Z,4.4
2023-12-17T02:20:36.390Z,4.4
2023-12-17T02:21:37.571Z,4.4
2023-12-17T02:22:38.722Z,4.4
2023-12-17T02:23:40.050Z,4.4
2023-12-17T02:24:41.273Z,4.4
2023-12-17T02:25:42.453Z,4.4
2023-12-17T02:26:43.705Z,4.4
2023-12-17T02:27:45.123Z,4.4
2023-12-17T02:28:46.278Z,4.4
2023-12-17T02:29:47.477Z,4.4
2023-12-17T02:30:48.642Z,4.4
2023-12-17T02:31:49.905Z,4.4
2023-12-17T02:32:51.136Z,4.4
2023-12-17T02:33:52.575Z,4.4
2023-12-17T02:34:54.154Z,4.4
2023-12-17T02:35:55.387Z,4.4
2023-12-17T02:36:56.584Z,4.4
2023-12-17T02:37:57.727Z,4.4
2023-12-17T02:38:58.952Z,4.4
2023-12-17T02:40:00.225Z,4.4
2023-12-17T02:41:01.363Z,4.4
2023-12-17T02:42:02.546Z,4.4
2023-12-17T02:43:03.745Z,4.4
2023-12-17T02:44:04.910Z,4.4
2023-12-17T02:45:06.137Z,4.4
2023-12-17T02:46:07.479Z,4.4
2023-12-17T02:47:08.635Z,4.4
2023-12-17T02:48:09.908Z,4.4
2023-12-17T02:49:11.567Z,4.4
2023-12-17T02:50:12.824Z,4.4
2023-12-17T02:51:14.055Z,4.4
2023-12-17T02:52:15.276Z,4.5
2023-12-17T02:53:16.424Z,4.5
2023-12-17T02:54:17.596Z,4.5
2023-12-17T02:55:18.983Z,4.5
2023-12-17T02:56:20.199Z,4.5
2023-12-17T02:57:21.423Z,4.5
2023-12-17T02:58:22.708Z,4.5
2023-12-17T02:59:23.881Z,4.5
2023-12-17T03:00:25.082Z,4.5
2023-12-17T03:01:26.783Z,4.5
2023-12-17T03:02:27.954Z,4.6
2023-12-17T03:03:29.256Z,4.6
2023-12-17T03:04:30.668Z,4.6
2023-12-17T03:05:31.899Z,4.6
2023-12-17T03:06:33.155Z,4.6
2023-12-17T03:07:34.350Z,4.6
2023-12-17T03:08:35.515Z,4.6
2023-12-17T03:09:36.714Z,4.6
2023-12-17T03:10:37.902Z,4.6
2023-12-17T03:11:39.085Z,4.6
2023-12-17T03:12:40.239Z,4.7
2023-12-17T03:13:41.384Z,4.7
2023-12-17T03:14:42.580Z,4.7
2023-12-17T03:15:43.772Z,4.7
2023-12-17T03:16:44.917Z,4.7
2023-12-17T03:17:46.127Z,4.7
2023-12-17T03:18:47.724Z,4.7
2023-12-17T03:19:49.836Z,4.7
2023-12-17T03:20:51.108Z,4.7
2023-12-17T03:21:52.258Z,4.7
2023-12-17T03:22:53.472Z,4.8
2023-12-17T03:23:54.635Z,4.8
2023-12-17T03:24:55.889Z,4.8
2023-12-17T03:25:57.053Z,4.8
2023-12-17T03:26:58.250Z,4.8
2023-12-17T03:27:59.488Z,4.8
2023-12-17T03:29:00.651Z,4.8
2023-12-17T03:30:01.972Z,4.9
2023-12-17T03:31:03.190Z,4.9
2023-12-17T03:32:04.446Z,4.9
2023-12-17T03:33:05.911Z,4.9
2023-12-17T03:34:07.429Z,4.9
2023-12-17T03:35:08.905Z,5
2023-12-17T03:36:10.089Z,4.9
2023-12-17T03:37:11.724Z,5
2023-12-17T03:38:12.921Z,5
2023-12-17T03:39:14.147Z,5
2023-12-17T03:40:15.309Z,5
2023-12-17T03:41:16.471Z,5
2023-12-17T03:42:17.653Z,5
2023-12-17T03:43:18.862Z,5.1
2023-12-17T03:44:20.043Z,5.1
2023-12-17T03:45:21.262Z,5.1
2023-12-17T03:46:22.728Z,5.1
2023-12-17T03:47:23.884Z,5.1
2023-12-17T03:48:25.308Z,5.2
2023-12-17T03:49:26.844Z,5.2
2023-12-17T03:50:28.262Z,5.2
2023-12-17T03:51:29.428Z,5.2
2023-12-17T03:52:30.723Z,5.2
2023-12-17T03:53:31.915Z,5.2
2023-12-17T03:54:33.058Z,5.2
2023-12-17T03:55:34.230Z,5.2
2023-12-17T03:56:35.395Z,5.3
2023-12-17T03:57:36.556Z,5.3
2023-12-17T03:58:37.795Z,5.3
2023-12-17T03:59:38.956Z,5.3
2023-12-17T04:00:40.152Z,5.3
2023-12-17T04:01:41.346Z,5.3
2023-12-17T04:02:42.540Z,5.3
2023-12-17T04:03:43.917Z,5.3
2023-12-17T04:04:45.437Z,5.4
2023-12-17T04:05:46.638Z,5.4
2023-12-17T04:06:47.858Z,5.4
2023-12-17T04:07:49.104Z,5.4
2023-12-17T04:08:52.021Z,5.4
2023-12-17T04:09:56.702Z,5.4
2023-12-17T04:10:57.898Z,5.4
2023-12-17T04:11:59.088Z,5.4
2023-12-17T04:13:00.267Z,5.4
2023-12-17T04:14:01.431Z,5.4
2023-12-17T04:15:02.615Z,5.4
2023-12-17T04:16:03.844Z,5.4
2023-12-17T04:17:04.980Z,5.4
2023-12-17T04:18:06.261Z,5.4
2023-12-17T04:19:07.851Z,5.4
2023-12-17T04:20:09.289Z,5.4
2023-12-17T04:21:10.544Z,5.4
2023-12-17T04:22:11.801Z,5.4
2023-12-17T04:23:12.956Z,5.4
2023-12-17T04:24:14.166Z,5.4
2023-12-17T04:25:15.474Z,5.4
2023-12-17T04:26:16.648Z,5.4
2023-12-17T04:27:17.837Z,5.4
2023-12-17T04:28:19.007Z,5.4
2023-12-17T04:29:20.177Z,5.4
2023-12-17T04:30:21.361Z,5.4
2023-12-17T04:31:22.803Z,5.4
2023-12-17T04:32:24.046Z,5.5
2023-12-17T04:33:25.463Z,5.5
2023-12-17T04:34:26.969Z,5.5
2023-12-17T04:35:28.387Z,5.4
2023-12-17T04:36:29.666Z,5.5
2023-12-17T04:37:30.818Z,5.5
2023-12-17T04:38:31.975Z,5.4
2023-12-17T04:39:33.170Z,5.4
2023-12-17T04:40:34.304Z,5.4
2023-12-17T04:41:35.492Z,5.4
2023-12-17T04:42:36.639Z,5.4
2023-12-17T04:43:37.823Z,5.4
2023-12-17T04:44:38.997Z,5.4
2023-12-17T04:45:40.155Z,5.4
2023-12-17T04:46:41.334Z,5.4
2023-12-17T04:47:42.699Z,5.4
2023-12-17T04:48:45.528Z,5.4
2023-12-17T04:49:47.008Z,5.4
2023-12-17T04:50:48.198Z,5.4
2023-12-17T04:51:49.415Z,5.4
2023-12-17T04:52:50.580Z,5.4
2023-12-17T04:53:51.780Z,5.4
2023-12-17T04:54:52.982Z,5.4
2023-12-17T04:55:54.133Z,5.4
2023-12-17T04:56:55.370Z,5.4
2023-12-17T04:57:56.686Z,5.4
2023-12-17T04:58:57.856Z,5.3
2023-12-17T04:59:59.089Z,5.4
2023-12-17T05:01:00.381Z,5.3
2023-12-17T05:02:01.819Z,5.3
2023-12-17T05:03:03.031Z,5.3
2023-12-17T05:04:09.360Z,5.3
2023-12-17T05:05:10.947Z,5.3
2023-12-17T05:06:13.068Z,5.3
2023-12-17T05:07:14.536Z,5.3
2023-12-17T05:08:15.750Z,5.3
2023-12-17T05:09:16.979Z,5.3
2023-12-17T05:10:18.250Z,5.3
2023-12-17T05:11:19.394Z,5.2
2023-12-17T05:12:20.734Z,5.2
2023-12-17T05:13:22.221Z,5.2
2023-12-17T05:14:23.402Z,5.2
2023-12-17T05:15:24.592Z,5.2
2023-12-17T05:16:25.936Z,5.2
2023-12-17T05:17:27.162Z,5.2
2023-12-17T05:18:28.625Z,5.2
2023-12-17T05:19:30.151Z,5.1
2023-12-17T05:20:32.275Z,5.1
2023-12-17T05:21:33.454Z,5.1
2023-12-17T05:22:34.656Z,5.1
2023-12-17T05:23:35.827Z,5.1
2023-12-17T05:24:37.004Z,5.1
2023-12-17T05:25:38.177Z,5.1
2023-12-17T05:26:39.323Z,5.1
2023-12-17T05:27:40.666Z,5
2023-12-17T05:28:42.441Z,5
2023-12-17T05:29:43.632Z,5
2023-12-17T05:30:47.113Z,5
2023-12-17T05:31:48.901Z,5
2023-12-17T05:32:50.241Z,5
2023-12-17T05:33:51.830Z,5
2023-12-17T05:34:53.329Z,5
2023-12-17T05:35:54.515Z,5
2023-12-17T05:36:55.712Z,5
2023-12-17T05:37:56.877Z,5
2023-12-17T05:38:58.086Z,4.9
2023-12-17T05:39:59.286Z,4.9
2023-12-17T05:41:00.501Z,4.9
2023-12-17T05:42:01.688Z,4.9
2023-12-17T05:43:02.951Z,4.9
2023-12-17T05:44:04.101Z,4.9
2023-12-17T05:45:05.293Z,4.9
2023-12-17T05:46:06.803Z,4.9
2023-12-17T05:47:08.147Z,4.9
2023-12-17T05:48:09.424Z,4.9
2023-12-17T05:49:11.094Z,4.9
2023-12-17T05:50:12.965Z,4.9
2023-12-17T05:51:14.580Z,4.9
2023-12-17T05:52:15.753Z,4.9
2023-12-17T05:53:16.943Z,4.9
2023-12-17T05:54:18.116Z,4.9
2023-12-17T05:55:19.394Z,4.9
2023-12-17T05:56:20.699Z,4.9
2023-12-17T05:57:21.874Z,4.9
2023-12-17T05:58:23.106Z,4.9
2023-12-17T05:59:24.271Z,4.9
2023-12-17T06:00:25.455Z,4.9
2023-12-17T06:01:26.723Z,4.9
2023-12-17T06:02:27.951Z,4.9
2023-12-17T06:03:29.242Z,4.9
2023-12-17T06:04:30.572Z,4.9
2023-12-17T06:05:31.827Z,4.9
2023-12-17T06:06:33.112Z,4.9
2023-12-17T06:07:34.866Z,4.9
2023-12-17T06:08:36.025Z,4.9
2023-12-17T06:09:37.257Z,4.9
2023-12-17T06:10:38.525Z,4.9
2023-12-17T06:11:39.725Z,4.9
2023-12-17T06:12:40.871Z,4.9
2023-12-17T06:13:42.109Z,4.9
2023-12-17T06:14:43.364Z,4.9
2023-12-17T06:15:44.584Z,4.9
2023-12-17T06:16:45.775Z,4.9
2023-12-17T06:17:46.985Z,4.9
2023-12-17T06:18:48.456Z,4.9
2023-12-17T06:19:50.108Z,4.9
2023-12-17T06:20:51.421Z,4.9
2023-12-17T06:21:52.634Z,4.9
2023-12-17T06:22:53.791Z,4.9
2023-12-17T06:23:54.972Z,4.9
2023-12-17T06:24:56.165Z,4.9
2023-12-17T06:25:57.359Z,4.9
2023-12-17T06:26:58.552Z,4.8
2023-12-17T06:27:59.783Z,4.8
2023-12-17T06:29:00.950Z,4.8
2023-12-17T06:30:02.151Z,4.8
2023-12-17T06:31:03.615Z,4.8
2023-12-17T06:32:05.941Z,4.8
2023-12-17T06:33:09.294Z,4.8
2023-12-17T06:34:10.893Z,4.8
2023-12-17T06:35:12.209Z,4.8
2023-12-17T06:36:13.395Z,4.8
2023-12-17T06:37:14.616Z,4.8
2023-12-17T06:38:15.778Z,4.8
2023-12-17T06:39:17.108Z,4.8
2023-12-17T06:40:18.272Z,4.8
2023-12-17T06:41:19.432Z,4.7
2023-12-17T06:42:20.628Z,4.7
2023-12-17T06:43:21.871Z,4.7
2023-12-17T06:44:23.049Z,4.7
2023-12-17T06:45:24.216Z,4.7
2023-12-17T06:46:25.452Z,4.7
2023-12-17T06:47:28.422Z,4.7
2023-12-17T06:48:30.310Z,4.7
2023-12-17T06:49:31.800Z,4.7
2023-12-17T06:50:33.157Z,4.7
2023-12-17T06:51:34.374Z,4.7
2023-12-17T06:52:35.564Z,4.7
2023-12-17T06:53:36.735Z,4.6
2023-12-17T06:54:37.942Z,4.6
2023-12-17T06:55:39.130Z,4.6
2023-12-17T06:56:40.292Z,4.6
2023-12-17T06:57:41.622Z,4.6
2023-12-17T06:58:43.609Z,4.6
2023-12-17T06:59:44.836Z,4.6
2023-12-17T07:00:46.347Z,4.6
2023-12-17T07:01:47.692Z,4.6
2023-12-17T07:02:48.945Z,4.5
2023-12-17T07:03:50.347Z,4.5
2023-12-17T07:04:51.582Z,4.5
2023-12-17T07:05:52.895Z,4.5
2023-12-17T07:06:54.194Z,4.5
2023-12-17T07:07:55.352Z,4.5
2023-12-17T07:08:56.539Z,4.5
2023-12-17T07:09:57.762Z,4.5
2023-12-17T07:10:58.934Z,4.5
2023-12-17T07:12:00.105Z,4.4
2023-12-17T07:13:01.377Z,4.4
2023-12-17T07:14:02.522Z,4.4
2023-12-17T07:15:03.757Z,4.4
2023-12-17T07:16:04.955Z,4.4
2023-12-17T07:17:06.120Z,4.4
2023-12-17T07:18:07.604Z,4.4
2023-12-17T07:19:09.647Z,4.4
2023-12-17T07:20:11.070Z,4.4
2023-12-17T07:21:12.264Z,4.4
2023-12-17T07:22:13.485Z,4.4
2023-12-17T07:23:14.644Z,4.4
2023-12-17T07:24:15.872Z,4.4
2023-12-17T07:25:17.108Z,4.3
2023-12-17T07:26:18.273Z,4.3
2023-12-17T07:27:24.531Z,4.3
2023-12-17T07:28:25.776Z,4.3
2023-12-17T07:29:26.926Z,4.3
2023-12-17T07:30:28.144Z,4.3
2023-12-17T07:31:29.481Z,4.3
2023-12-17T07:32:30.844Z,4.3
2023-12-17T07:33:32.266Z,4.3
2023-12-17T07:34:33.712Z,4.3
2023-12-17T07:35:35.177Z,4.3
2023-12-17T07:36:36.337Z,4.3
2023-12-17T07:37:37.593Z,4.3
2023-12-17T07:38:39.467Z,4.3
2023-12-17T07:39:40.919Z,4.3
2023-12-17T07:40:42.065Z,4.3
2023-12-17T07:41:43.234Z,4.3
2023-12-17T07:42:44.392Z,4.3
2023-12-17T07:43:45.589Z,4.3
2023-12-17T07:44:46.798Z,4.3
2023-12-17T07:45:48.009Z,4.4
2023-12-17T07:46:49.172Z,4.3
2023-12-17T07:47:50.714Z,4.4
2023-12-17T07:48:53.387Z,4.4
2023-12-17T07:49:54.915Z,4.4
2023-12-17T07:50:56.147Z,4.4
2023-12-17T07:51:57.315Z,4.4
2023-12-17T07:52:58.491Z,4.4
2023-12-17T07:53:59.692Z,4.4
2023-12-17T07:55:00.989Z,4.4
2023-12-17T07:56:02.149Z,4.4
2023-12-17T07:57:03.320Z,4.4
2023-12-17T07:58:04.636Z,4.4
2023-12-17T07:59:05.826Z,4.5
2023-12-17T08:00:07.669Z,4.5
2023-12-17T08:01:08.914Z,4.5
2023-12-17T08:02:10.078Z,4.5
2023-12-17T08:03:11.317Z,4.5
2023-12-17T08:04:12.755Z,4.5
2023-12-17T08:05:14.334Z,4.5
2023-12-17T08:06:15.679Z,4.6
2023-12-17T08:07:17.305Z,4.6
2023-12-17T08:08:18.707Z,4.6
2023-12-17T08:09:19.872Z,4.6
2023-12-17T08:10:21.297Z,4.6
2023-12-17T08:11:22.479Z,4.6
2023-12-17T08:12:23.696Z,4.7
2023-12-17T08:13:24.880Z,4.7
2023-12-17T08:14:26.039Z,4.7
2023-12-17T08:15:27.271Z,4.7
2023-12-17T08:16:28.576Z,4.7
2023-12-17T08:17:29.799Z,4.7
2023-12-17T08:18:31.181Z,4.7
2023-12-17T08:19:32.433Z,4.8
2023-12-17T08:20:33.619Z,4.8
2023-12-17T08:21:34.797Z,4.8
2023-12-17T08:22:36.095Z,4.9
2023-12-17T08:23:39.441Z,4.9
2023-12-17T08:24:43.265Z,4.9
2023-12-17T08:25:44.437Z,4.9
2023-12-17T08:26:45.614Z,5
2023-12-17T08:27:46.805Z,5
2023-12-17T08:28:47.959Z,5
2023-12-17T08:29:49.319Z,5
2023-12-17T08:30:50.822Z,5.1
2023-12-17T08:31:52.582Z,5.1
2023-12-17T08:32:53.816Z,5.2
2023-12-17T08:33:55.288Z,5.2
2023-12-17T08:34:56.658Z,5.2
2023-12-17T08:35:57.832Z,5.3
2023-12-17T08:36:59.051Z,5.3
2023-12-17T08:38:00.217Z,5.4
2023-12-17T08:39:01.475Z,5.4
2023-12-17T08:40:02.670Z,5.5
2023-12-17T08:41:03.811Z,5.5
2023-12-17T08:42:04.999Z,5.6
2023-12-17T08:43:06.181Z,5.7
2023-12-17T08:44:07.422Z,5.7
2023-12-17T08:45:08.651Z,5.8
2023-12-17T08:46:09.893Z,5.8
2023-12-17T08:47:11.058Z,5.9
2023-12-17T08:48:12.312Z,5.9
2023-12-17T08:49:16.193Z,6
2023-12-17T08:50:18.329Z,6.1
2023-12-17T08:51:19.563Z,6.2
2023-12-17T08:52:20.792Z,6.3
2023-12-17T08:53:21.947Z,6.3
2023-12-17T08:54:23.192Z,6.4
2023-12-17T08:55:24.415Z,6.5
2023-12-17T08:56:25.594Z,6.6
2023-12-17T08:57:26.785Z,6.7
2023-12-17T08:58:28.014Z,6.8
2023-12-17T08:59:29.176Z,6.9
2023-12-17T09:00:30.534Z,6.9
2023-12-17T09:01:32.081Z,7
2023-12-17T09:02:33.246Z,7.1
2023-12-17T09:03:34.449Z,7.2
2023-12-17T09:04:35.922Z,7.2
2023-12-17T09:05:37.132Z,7.3
2023-12-17T09:06:38.347Z,7.4
2023-12-17T09:07:39.680Z,7.5
2023-12-17T09:08:41.821Z,7.6
2023-12-17T09:09:42.982Z,7.8
2023-12-17T09:10:44.154Z,7.9
2023-12-17T09:11:45.313Z,8.1
2023-12-17T09:12:46.518Z,8.3
2023-12-17T09:13:47.781Z,8.5
2023-12-17T09:14:51.265Z,8.8
2023-12-17T09:15:52.596Z,9
2023-12-17T09:16:53.767Z,9.2
2023-12-17T09:17:55.220Z,9.4
2023-12-17T09:18:56.881Z,9.7
2023-12-17T09:19:58.458Z,9.9
2023-12-17T09:20:59.699Z,10.2
2023-12-17T09:22:01.018Z,10.3
2023-12-17T09:23:02.185Z,10.5
2023-12-17T09:24:03.377Z,10.8
2023-12-17T09:25:04.582Z,11.1
2023-12-17T09:26:05.882Z,11.4
2023-12-17T09:27:07.060Z,11.7
2023-12-17T09:28:09.287Z,12
2023-12-17T09:29:10.484Z,12.3
2023-12-17T09:30:12.087Z,12.6
2023-12-17T09:31:13.485Z,12.9
2023-12-17T09:32:14.666Z,13.1
2023-12-17T09:33:15.946Z,13.4
2023-12-17T09:34:17.627Z,13.7
2023-12-17T09:35:19.617Z,14
2023-12-17T09:36:20.942Z,14.3
2023-12-17T09:37:22.250Z,14.6
2023-12-17T09:38:23.392Z,14.9
2023-12-17T09:39:24.687Z,15.1
2023-12-17T09:40:26.179Z,15.4
2023-12-17T09:41:27.361Z,15.6
2023-12-17T09:42:28.691Z,15.7
2023-12-17T09:43:29.956Z,16
2023-12-17T09:44:31.134Z,16.3
2023-12-17T09:45:32.346Z,16.7
2023-12-17T09:46:33.946Z,16.9
2023-12-17T09:47:35.094Z,17.3
2023-12-17T09:48:36.550Z,17.6
2023-12-17T09:49:40.386Z,17.9
2023-12-17T09:50:41.824Z,18.1
2023-12-17T09:51:42.967Z,18.3
2023-12-17T09:52:44.131Z,18.6
2023-12-17T09:53:45.298Z,18.9
2023-12-17T09:54:46.476Z,19.2
2023-12-17T09:55:47.872Z,19.5
2023-12-17T09:56:49.263Z,19.8
2023-12-17T09:57:50.797Z,20
2023-12-17T09:58:51.959Z,20.3
2023-12-17T09:59:53.133Z,20.5
2023-12-17T10:00:54.531Z,20.8
2023-12-17T10:01:56.358Z,21.1
2023-12-17T10:03:00.422Z,21.3
2023-12-17T10:04:01.830Z,21.6
2023-12-17T10:05:03.287Z,21.8
2023-12-17T10:06:04.562Z,22
2023-12-17T10:07:05.856Z,22.3
2023-12-17T10:08:07.672Z,22.5
2023-12-17T10:09:09.029Z,22.6
2023-12-17T10:10:10.338Z,22.8
2023-12-17T10:11:11.518Z,23
2023-12-17T10:12:12.811Z,23.1
2023-12-17T10:13:14.021Z,23.3
2023-12-17T10:14:15.226Z,23.5
2023-12-17T10:15:16.371Z,23.6
2023-12-17T10:16:17.678Z,23.8
2023-12-17T10:17:18.878Z,23.9
2023-12-17T10:18:20.395Z,24
2023-12-17T10:19:22.806Z,24.1
2023-12-17T10:20:29.909Z,24.2
2023-12-17T10:21:31.296Z,24.3
2023-12-17T10:22:32.611Z,24.3
2023-12-17T10:23:33.773Z,24.4
2023-12-17T10:24:34.970Z,24.4
2023-12-17T10:25:36.177Z,24.4
2023-12-17T10:26:37.355Z,24.5
2023-12-17T10:27:38.797Z,24.5
2023-12-17T10:28:40.832Z,24.5
2023-12-17T10:29:42.007Z,24.5
2023-12-17T10:30:43.660Z,24.5
2023-12-17T10:31:45.536Z,24.5
2023-12-17T10:32:46.862Z,24.4
2023-12-17T10:33:48.460Z,24.3
2023-12-17T10:34:50.343Z,24.3
2023-12-17T10:35:52.624Z,24.3
2023-12-17T10:36:53.817Z,24.4
2023-12-17T10:37:54.979Z,24.5
2023-12-17T10:38:56.179Z,24.7
2023-12-17T10:39:57.378Z,24.8
2023-12-17T10:40:58.535Z,25
2023-12-17T10:41:59.759Z,25.1
2023-12-17T10:43:00.961Z,25.2
2023-12-17T10:44:02.118Z,25.3
2023-12-17T10:45:03.309Z,25.4
2023-12-17T10:46:04.470Z,25.5
2023-12-17T10:47:05.638Z,25.6
2023-12-17T10:48:07.009Z,25.8
2023-12-17T10:49:08.739Z,25.8
2023-12-17T10:50:10.251Z,26
2023-12-17T10:51:11.452Z,26
2023-12-17T10:52:12.864Z,26
2023-12-17T10:53:14.036Z,26.1
2023-12-17T10:54:15.235Z,26.3
2023-12-17T10:55:16.682Z,26.3
2023-12-17T10:56:17.985Z,26.5
2023-12-17T10:57:19.159Z,26.7
2023-12-17T10:58:20.464Z,26.8
2023-12-17T10:59:27.024Z,26.9
2023-12-17T11:00:42.178Z,27
2023-12-17T11:01:43.555Z,27.1
2023-12-17T11:02:44.730Z,27.1
2023-12-17T11:03:46.009Z,27.2
2023-12-17T11:04:47.330Z,27.3
2023-12-17T11:05:48.563Z,27.4
2023-12-17T11:06:49.964Z,27.6
2023-12-17T11:07:51.244Z,27.6
2023-12-17T11:08:52.438Z,27.7
2023-12-17T11:09:53.608Z,27.7
2023-12-17T11:10:54.785Z,27.8
2023-12-17T11:11:55.973Z,27.9
2023-12-17T11:12:57.150Z,27.9
2023-12-17T11:13:58.319Z,28
2023-12-17T11:14:59.564Z,28.1
2023-12-17T11:16:00.966Z,28.2
2023-12-17T11:17:02.142Z,28.2
2023-12-17T11:18:03.398Z,28.2
2023-12-17T11:19:04.946Z,28.3
2023-12-17T11:20:06.519Z,28.3
2023-12-17T11:21:08.263Z,28.3
2023-12-17T11:22:09.418Z,28.3
2023-12-17T11:23:10.596Z,28.4
2023-12-17T11:24:11.800Z,28.4
2023-12-17T11:25:13.097Z,28.4
2023-12-17T11:26:14.277Z,28.5
2023-12-17T11:27:15.511Z,28.5
2023-12-17T11:28:16.709Z,28.5
2023-12-17T11:29:18.009Z,28.6
2023-12-17T11:30:19.269Z,28.6
2023-12-17T11:31:20.605Z,28.7
2023-12-17T11:32:21.830Z,28.8
2023-12-17T11:33:23.181Z,28.8
2023-12-17T11:34:24.807Z,28.9
2023-12-17T11:35:26.081Z,28.9
2023-12-17T11:36:27.291Z,29
2023-12-17T11:37:28.513Z,29
2023-12-17T11:38:29.682Z,29
2023-12-17T11:39:30.967Z,29
2023-12-17T11:40:32.238Z,28.9
2023-12-17T11:41:33.414Z,28.9
2023-12-17T11:42:34.633Z,28.9
2023-12-17T11:43:36.031Z,28.9
2023-12-17T11:44:37.229Z,28.9
2023-12-17T11:45:38.459Z,28.9
2023-12-17T11:46:42.886Z,29
2023-12-17T11:47:44.061Z,29
2023-12-17T11:48:45.521Z,29
2023-12-17T11:49:47.055Z,29.1
2023-12-17T11:50:48.488Z,29.1
2023-12-17T11:51:49.717Z,29.1
2023-12-17T11:52:50.867Z,29.2
2023-12-17T11:53:52.062Z,29.3
2023-12-17T11:54:53.230Z,29.3
2023-12-17T11:55:54.399Z,29.4
2023-12-17T11:56:55.586Z,29.5
2023-12-17T11:57:56.892Z,29.6
2023-12-17T11:58:58.053Z,29.6
2023-12-17T11:59:59.296Z,29.6
2023-12-17T12:01:00.944Z,29.6
2023-12-17T12:02:02.373Z,29.6
2023-12-17T12:03:03.551Z,29.6
2023-12-17T12:04:05.111Z,29.6
2023-12-17T12:05:06.554Z,29.7
2023-12-17T12:06:08.250Z,29.7
2023-12-17T12:07:10.015Z,29.7
2023-12-17T12:08:11.166Z,29.8
2023-12-17T12:09:12.717Z,29.8
2023-12-17T12:10:13.902Z,29.8
2023-12-17T12:11:15.081Z,29.9
2023-12-17T12:12:16.320Z,30
2023-12-17T12:13:17.547Z,30.1
2023-12-17T12:14:18.716Z,30.1
2023-12-17T12:15:19.905Z,30.2
2023-12-17T12:16:21.104Z,30.3
2023-12-17T12:17:23.929Z,30.4
2023-12-17T12:18:25.329Z,30.5
2023-12-17T12:19:27.241Z,30.6
2023-12-17T12:20:33.785Z,30.6
2023-12-17T12:21:35.017Z,30.7
2023-12-17T12:22:36.428Z,30.8
2023-12-17T12:23:37.605Z,30.9
2023-12-17T12:24:38.832Z,30.9
2023-12-17T12:25:40.276Z,31
2023-12-17T12:26:41.426Z,31.1
2023-12-17T12:27:42.678Z,31.3
2023-12-17T12:28:44.334Z,31.3
2023-12-17T12:29:45.513Z,31.4
2023-12-17T12:30:46.690Z,31.5
2023-12-17T12:31:48.020Z,31.6
2023-12-17T12:32:49.234Z,31.7
2023-12-17T12:33:50.696Z,31.7
2023-12-17T12:34:52.187Z,31.9
2023-12-17T12:35:53.688Z,32
2023-12-17T12:36:54.879Z,32.1
2023-12-17T12:37:56.057Z,32.2
2023-12-17T12:38:57.215Z,32.3
2023-12-17T12:40:02.421Z,32.4
2023-12-17T12:41:10.208Z,32.5
2023-12-17T12:42:11.407Z,32.6
2023-12-17T12:43:12.626Z,32.7
2023-12-17T12:44:13.791Z,32.8
2023-12-17T12:45:15.022Z,32.9
2023-12-17T12:46:16.532Z,33
2023-12-17T12:47:17.733Z,33.2
2023-12-17T12:48:19.435Z,33.4
2023-12-17T12:49:21.397Z,33.5
2023-12-17T12:50:22.860Z,33.7
2023-12-17T12:51:24.059Z,34.1
2023-12-17T12:52:25.340Z,34.6
2023-12-17T12:53:27.119Z,35
2023-12-17T12:54:28.591Z,35.4
2023-12-17T12:55:29.967Z,35.8
2023-12-17T12:56:31.144Z,36.3
2023-12-17T12:57:34.414Z,36.6
2023-12-17T12:58:35.984Z,37
2023-12-17T12:59:37.145Z,37.4
2023-12-17T13:00:38.465Z,37.7
2023-12-17T13:01:39.821Z,38
2023-12-17T13:02:41.024Z,38.4
2023-12-17T13:03:42.285Z,38.8
2023-12-17T13:04:43.671Z,39.1
2023-12-17T13:05:44.971Z,39.5
2023-12-17T13:06:46.354Z,39.8
2023-12-17T13:07:48.018Z,40.1
2023-12-17T13:08:49.200Z,40.3
2023-12-17T13:09:57.309Z,40.6
2023-12-17T13:11:12.408Z,40.9
2023-12-17T13:12:13.693Z,41.1
2023-12-17T13:13:14.927Z,41.1
2023-12-17T13:14:16.090Z,41.1
2023-12-17T13:15:17.259Z,41.2
2023-12-17T13:16:18.978Z,41.2
2023-12-17T13:17:20.209Z,41.1
2023-12-17T13:18:21.499Z,41.2
2023-12-17T13:19:23.948Z,41.1
2023-12-17T13:20:26.246Z,41
2023-12-17T13:21:27.754Z,40.9
2023-12-17T13:22:28.941Z,41
2023-12-17T13:23:30.099Z,40.9
2023-12-17T13:24:32.487Z,40.7
2023-12-17T13:25:33.822Z,40.6
2023-12-17T13:26:34.986Z,40.6
2023-12-17T13:27:36.172Z,40.6
2023-12-17T13:28:37.695Z,40.6
2023-12-17T13:29:38.842Z,40.4
2023-12-17T13:30:40.114Z,40.4
2023-12-17T13:31:41.473Z,40.3
2023-12-17T13:32:42.834Z,40.4
2023-12-17T13:33:44.654Z,40.5
2023-12-17T13:34:46.071Z,40.5
2023-12-17T13:35:47.315Z,40.4
2023-12-17T13:36:48.598Z,40.3
2023-12-17T13:37:49.996Z,40.1
2023-12-17T13:38:51.122Z,39.8
2023-12-17T13:39:52.387Z,39.3
2023-12-17T13:40:53.552Z,39
2023-12-17T13:41:56.077Z,38.8
2023-12-17T13:43:03.591Z,38.6
2023-12-17T13:44:04.751Z,38.5
2023-12-17T13:45:05.907Z,38.3
2023-12-17T13:46:07.369Z,38.2
2023-12-17T13:47:08.575Z,38.1
2023-12-17T13:48:09.880Z,38.1
2023-12-17T13:49:11.384Z,38.1
2023-12-17T13:50:13.937Z,38
2023-12-17T13:51:15.240Z,37.9
2023-12-17T13:52:16.494Z,37.7
2023-12-17T13:53:17.720Z,37.6
2023-12-17T13:54:19.220Z,37.5
2023-12-17T13:55:20.837Z,37.3
2023-12-17T13:56:23.980Z,37
2023-12-17T13:57:36.396Z,36.7
2023-12-17T13:58:37.589Z,36.4
2023-12-17T13:59:38.734Z,36
2023-12-17T14:00:39.935Z,35.5